Polley, Wisconsin
Current Conditions -  °F | °C
As of 12:35 AM on Thursday 27 Nov 2014 (Local Time) from KRCX Reporting Station
Light Snow Light Snow  
Wind Chill: -1°   Ceiling: 4500
Heat Index: 13°   Visibility: 7mi
Dew Point:   Wind: 10mph
Humidity: 83%   Direction: 320°NW
Pressure: 30.31"   Gusts: NA
Location:  45.2123°N, 90.8091°W
Report Text: KRCX 270635Z AUTO 32009KT 7SM -SN SCT026 BKN045 OVC100 M11/M13 A3031 RMK AO2 T11081132
Loading
Personal Weather Stations






























Interactive Weather Map New forecast layout! Learn more

10-Day Weather Forecast

Advertisements
Track Severe Weather on mobile